createdAt,value
2023-03-07T00:02:38.404Z,58.54
2023-03-07T00:05:42.500Z,58.36
2023-03-07T00:08:45.152Z,58.41
2023-03-07T00:11:47.674Z,58.19
2023-03-07T00:14:50.199Z,57.58
2023-03-07T00:17:52.868Z,57.79
2023-03-07T00:20:59.443Z,57.81
2023-03-07T00:24:02.097Z,57.54
2023-03-07T00:27:05.303Z,57.34
2023-03-07T00:30:09.645Z,56.70
2023-03-07T00:33:12.120Z,56.81
2023-03-07T00:36:17.833Z,56.34
2023-03-07T00:39:20.380Z,56.26
2023-03-07T00:42:23.022Z,56.10
2023-03-07T00:45:25.637Z,55.96
2023-03-07T00:48:29.018Z,56.00
2023-03-07T00:51:32.990Z,55.88
2023-03-07T00:54:35.536Z,55.84
2023-03-07T00:57:38.101Z,55.33
2023-03-07T01:00:40.745Z,55.41
2023-03-07T01:03:43.813Z,55.30
2023-03-07T01:06:47.816Z,54.75
2023-03-07T01:09:53.073Z,54.81
2023-03-07T01:12:55.617Z,54.58
2023-03-07T01:16:07.147Z,54.62
2023-03-07T01:19:12.552Z,54.53
2023-03-07T01:22:16.492Z,54.22
2023-03-07T01:25:18.895Z,54.12
2023-03-07T01:28:21.422Z,54.06
2023-03-07T01:31:24.027Z,53.92
2023-03-07T01:34:26.620Z,54.13
2023-03-07T01:37:30.452Z,54.06
2023-03-07T01:40:32.905Z,54.26
2023-03-07T01:43:37.598Z,54.25
2023-03-07T01:46:44.034Z,54.01
2023-03-07T01:49:46.632Z,54.19
2023-03-07T01:52:52.444Z,54.39
2023-03-07T01:55:55.065Z,54.10
2023-03-07T01:58:57.677Z,54.11
2023-03-07T02:02:02.575Z,53.91
2023-03-07T02:05:09.428Z,54.19
2023-03-07T02:08:15.010Z,54.17
2023-03-07T02:11:17.926Z,54.07
2023-03-07T02:14:20.420Z,54.13
2023-03-07T02:17:23.118Z,53.66
2023-03-07T02:20:32.695Z,54.00
2023-03-07T02:23:42.195Z,53.93
2023-03-07T02:26:46.623Z,54.35
2023-03-07T02:29:49.171Z,54.44
2023-03-07T02:32:51.971Z,54.03
2023-03-07T02:35:57.219Z,53.87
2023-03-07T02:39:02.025Z,53.49
2023-03-07T02:42:09.827Z,53.78
2023-03-07T02:45:14.146Z,54.02
2023-03-07T02:48:16.894Z,54.04
2023-03-07T02:51:19.380Z,53.94
2023-03-07T02:54:21.928Z,53.96
2023-03-07T02:57:26.026Z,53.79
2023-03-07T03:00:28.596Z,53.63
2023-03-07T03:03:31.441Z,53.80
2023-03-07T03:06:33.979Z,53.90
2023-03-07T03:09:36.622Z,54.05
2023-03-07T03:12:40.450Z,54.21
2023-03-07T03:15:42.940Z,54.28
2023-03-07T03:18:45.471Z,54.20
2023-03-07T03:21:48.658Z,54.13
2023-03-07T03:24:51.299Z,54.09
2023-03-07T03:27:55.202Z,53.61
2023-03-07T03:30:58.160Z,53.55
2023-03-07T03:34:00.704Z,53.48
2023-03-07T03:37:03.205Z,53.26
2023-03-07T03:40:14.099Z,53.46
2023-03-07T03:43:18.064Z,53.54
2023-03-07T03:46:20.569Z,53.32
2023-03-07T03:49:23.089Z,53.15
2023-03-07T03:52:25.656Z,53.28
2023-03-07T03:55:28.141Z,53.55
2023-03-07T03:58:32.012Z,53.79
2023-03-07T04:01:34.569Z,54.15
2023-03-07T04:04:37.257Z,54.58
2023-03-07T04:07:40.220Z,54.66
2023-03-07T04:10:43.781Z,54.84
2023-03-07T04:13:47.656Z,54.66
2023-03-07T04:16:50.336Z,54.46
2023-03-07T04:19:53.023Z,54.71
2023-03-07T04:22:55.555Z,54.67
2023-03-07T04:25:59.391Z,54.57
2023-03-07T04:29:04.226Z,54.76
2023-03-07T04:32:07.081Z,54.71
2023-03-07T04:35:10.467Z,54.39
2023-03-07T04:38:13.106Z,54.16
2023-03-07T04:41:17.559Z,53.87
2023-03-07T04:44:21.810Z,53.82
2023-03-07T04:47:24.642Z,53.49
2023-03-07T04:50:27.200Z,53.11
2023-03-07T04:53:29.902Z,53.19
2023-03-07T04:56:32.537Z,52.82
2023-03-07T04:59:39.268Z,53.08
2023-03-07T05:02:41.739Z,53.04
2023-03-07T05:05:44.345Z,53.07
2023-03-07T05:08:46.981Z,53.23
2023-03-07T05:11:49.624Z,53.19
2023-03-07T05:15:01.466Z,53.48
2023-03-07T05:18:04.200Z,53.48
2023-03-07T05:21:09.413Z,54.17
2023-03-07T05:24:12.091Z,54.02
2023-03-07T05:27:16.366Z,52.63
2023-03-07T05:30:22.565Z,53.04
2023-03-07T05:33:25.513Z,52.80
2023-03-07T05:36:28.202Z,53.35
2023-03-07T05:39:30.873Z,52.21
2023-03-07T05:42:33.429Z,52.66
2023-03-07T05:45:37.508Z,52.54
2023-03-07T05:48:40.025Z,52.68
2023-03-07T05:51:42.600Z,52.55
2023-03-07T05:54:45.133Z,52.29
2023-03-07T05:57:47.661Z,52.29
2023-03-07T06:00:51.564Z,52.26
2023-03-07T06:03:53.914Z,52.38
2023-03-07T06:06:56.417Z,52.47
2023-03-07T06:09:59.165Z,52.30
2023-03-07T06:13:01.759Z,52.04
2023-03-07T06:16:06.135Z,52.15
2023-03-07T06:19:08.905Z,51.97
2023-03-07T06:22:11.359Z,51.78
2023-03-07T06:25:15.459Z,51.86
2023-03-07T06:28:18.012Z,51.68
2023-03-07T06:31:22.666Z,51.93
2023-03-07T06:34:25.333Z,51.37
2023-03-07T06:37:28.129Z,51.50
2023-03-07T06:40:30.881Z,50.88
2023-03-07T06:43:33.774Z,50.92
2023-03-07T06:46:37.759Z,51.07
2023-03-07T06:49:40.517Z,50.73
2023-03-07T06:52:43.115Z,50.50
2023-03-07T06:55:49.532Z,50.68
2023-03-07T06:58:52.339Z,50.02
2023-03-07T07:01:56.350Z,49.62
2023-03-07T07:05:01.256Z,49.49
2023-03-07T07:08:04.233Z,49.49
2023-03-07T07:11:06.978Z,49.50
2023-03-07T07:14:09.673Z,49.80
2023-03-07T07:17:13.686Z,48.87
2023-03-07T07:20:16.443Z,48.80
2023-03-07T07:23:20.660Z,48.93
2023-03-07T07:26:24.350Z,48.81
2023-03-07T07:29:27.193Z,48.25
2023-03-07T07:32:31.433Z,48.33
2023-03-07T07:35:34.262Z,48.27
2023-03-07T07:38:37.049Z,48.19
2023-03-07T07:41:39.726Z,48.38
2023-03-07T07:44:42.395Z,47.64
2023-03-07T07:47:49.020Z,47.30
2023-03-07T07:50:51.641Z,47.64
2023-03-07T07:53:54.190Z,47.52
2023-03-07T07:56:57.923Z,46.93
2023-03-07T08:00:00.381Z,47.51
2023-03-07T08:03:04.577Z,47.20
2023-03-07T08:06:07.344Z,47.35
2023-03-07T08:09:09.903Z,46.71
2023-03-07T08:12:13.201Z,46.36
2023-03-07T08:15:17.040Z,46.67
2023-03-07T08:18:22.079Z,46.29
2023-03-07T08:21:25.143Z,46.43
2023-03-07T08:24:39.951Z,45.50
2023-03-07T08:27:43.423Z,44.88
2023-03-07T08:30:46.030Z,44.42
2023-03-07T08:33:50.617Z,43.89
2023-03-07T08:36:54.285Z,44.19
2023-03-07T08:39:56.706Z,43.30
2023-03-07T08:42:59.512Z,43.24
2023-03-07T08:46:02.186Z,43.67
2023-03-07T08:49:06.307Z,42.72
2023-03-07T08:52:08.876Z,43.87
2023-03-07T08:55:11.437Z,43.27
2023-03-07T08:58:13.967Z,43.31
2023-03-07T09:01:16.492Z,41.80
2023-03-07T09:04:20.461Z,42.11
2023-03-07T09:07:23.128Z,41.86
2023-03-07T09:10:27.350Z,41.89
2023-03-07T09:13:29.975Z,41.24
2023-03-07T09:16:32.744Z,41.22
2023-03-07T09:19:36.646Z,40.72
2023-03-07T09:22:39.639Z,41.66
2023-03-07T09:25:42.169Z,39.60
2023-03-07T09:28:44.936Z,39.61
2023-03-07T09:31:47.602Z,39.23
2023-03-07T09:34:53.142Z,38.94
2023-03-07T09:37:55.689Z,38.58
2023-03-07T09:41:03.096Z,38.87
2023-03-07T09:44:12.042Z,38.89
2023-03-07T09:47:29.956Z,39.75
2023-03-07T09:50:41.183Z,40.52
2023-03-07T09:53:45.043Z,40.70
2023-03-07T09:56:48.875Z,40.64
2023-03-07T09:59:53.915Z,40.96
2023-03-07T10:02:59.725Z,40.40
2023-03-07T10:06:10.202Z,40.19
2023-03-07T10:09:16.877Z,39.93
2023-03-07T10:12:38.116Z,40.42
2023-03-07T10:15:46.575Z,40.95
2023-03-07T10:19:00.789Z,39.98
2023-03-07T10:22:11.135Z,40.31
2023-03-07T10:25:20.244Z,41.20
2023-03-07T10:28:25.382Z,39.42
2023-03-07T10:31:33.185Z,40.32
2023-03-07T10:34:37.982Z,39.84
2023-03-07T10:37:50.164Z,39.29
2023-03-07T10:40:56.174Z,39.75
2023-03-07T10:43:58.934Z,40.38
2023-03-07T10:47:01.768Z,39.49
2023-03-07T10:50:15.565Z,40.15
2023-03-07T10:53:26.344Z,40.05
2023-03-07T10:56:28.904Z,40.50
2023-03-07T10:59:31.496Z,40.99
2023-03-07T11:02:37.049Z,40.40
2023-03-07T11:05:40.698Z,40.10
2023-03-07T11:08:46.216Z,39.31
2023-03-07T11:11:57.649Z,40.12
2023-03-07T11:15:12.184Z,39.82
2023-03-07T11:18:27.513Z,39.90
2023-03-07T11:21:32.170Z,39.24
2023-03-07T11:24:40.547Z,39.26
2023-03-07T11:27:49.224Z,38.89
2023-03-07T11:30:53.538Z,38.27
2023-03-07T11:34:00.897Z,38.54
2023-03-07T11:37:16.660Z,39.17
2023-03-07T11:40:23.910Z,39.21
2023-03-07T11:43:41.692Z,38.45
2023-03-07T11:47:08.132Z,38.60
2023-03-07T11:50:23.292Z,39.18
2023-03-07T11:53:37.613Z,38.84
2023-03-07T11:56:45.740Z,38.32
2023-03-07T12:00:05.048Z,38.29
2023-03-07T12:03:21.619Z,37.58
2023-03-07T12:06:33.222Z,38.22
2023-03-07T12:09:43.324Z,38.37
2023-03-07T12:12:56.700Z,38.86
2023-03-07T12:16:06.471Z,38.58
2023-03-07T12:19:32.752Z,37.55
2023-03-07T12:22:42.499Z,38.15
2023-03-07T12:25:47.513Z,37.16
2023-03-07T12:28:54.421Z,36.56
2023-03-07T12:32:00.337Z,35.57
2023-03-07T12:35:08.140Z,34.28
2023-03-07T12:38:14.167Z,33.47
2023-03-07T12:41:25.528Z,32.12
2023-03-07T12:44:35.753Z,33.04
2023-03-07T12:47:51.401Z,31.97
2023-03-07T12:50:58.057Z,32.56
2023-03-07T12:54:05.067Z,32.75
2023-03-07T12:57:12.534Z,31.96
2023-03-07T13:00:18.982Z,32.29
2023-03-07T13:03:35.681Z,33.58
2023-03-07T13:06:39.805Z,33.55
2023-03-07T13:09:44.078Z,34.38
2023-03-07T13:12:46.700Z,34.10
2023-03-07T13:16:07.074Z,35.17
2023-03-07T13:19:44.626Z,34.81
2023-03-07T13:23:26.515Z,34.44
2023-03-07T13:26:29.070Z,33.74
2023-03-07T13:30:06.692Z,34.12
2023-03-07T13:33:27.718Z,35.27
2023-03-07T13:36:35.833Z,36.03
2023-03-07T13:39:39.047Z,35.51
2023-03-07T13:42:48.364Z,35.31
2023-03-07T13:45:52.914Z,35.02
2023-03-07T13:49:03.839Z,35.53
2023-03-07T13:52:40.576Z,35.20
2023-03-07T13:55:47.030Z,35.78
2023-03-07T13:58:53.322Z,34.78
2023-03-07T14:01:58.767Z,35.60
2023-03-07T14:05:03.181Z,35.38
2023-03-07T14:08:06.745Z,35.97
2023-03-07T14:11:17.807Z,35.65
2023-03-07T14:14:55.801Z,35.66
2023-03-07T14:18:12.600Z,34.93
2023-03-07T14:21:25.444Z,31.50
2023-03-07T14:24:37.140Z,28.14
2023-03-07T14:27:51.800Z,27.67
2023-03-07T14:30:56.755Z,23.29
2023-03-07T14:33:59.584Z,19.71
2023-03-07T14:37:06.576Z,18.31
2023-03-07T14:40:20.798Z,16.33
2023-03-07T14:43:32.558Z,16.38
2023-03-07T14:46:40.253Z,21.56
2023-03-07T14:49:47.143Z,24.56
2023-03-07T14:52:59.409Z,28.02
2023-03-07T14:56:02.318Z,30.89
2023-03-07T14:59:05.781Z,32.27
2023-03-07T15:02:17.663Z,32.41
2023-03-07T15:05:22.350Z,32.32
2023-03-07T15:08:29.631Z,31.86
2023-03-07T15:11:35.734Z,25.34
2023-03-07T15:14:41.670Z,19.83
2023-03-07T15:17:44.653Z,17.33
2023-03-07T15:20:47.695Z,16.66
2023-03-07T15:23:56.411Z,20.82
2023-03-07T15:26:59.971Z,22.75
2023-03-07T15:30:02.475Z,24.95
2023-03-07T15:33:15.555Z,25.39
2023-03-07T15:36:26.806Z,21.60
2023-03-07T15:39:34.483Z,22.21
2023-03-07T15:42:49.422Z,20.33
2023-03-07T15:46:01.729Z,20.94
2023-03-07T15:49:04.714Z,22.21
2023-03-07T15:52:07.716Z,23.20
2023-03-07T15:55:18.737Z,26.54
2023-03-07T15:58:22.785Z,27.98
2023-03-07T16:01:26.894Z,30.98
2023-03-07T16:04:37.323Z,31.92
2023-03-07T16:07:39.872Z,31.08
2023-03-07T16:10:47.890Z,32.86
2023-03-07T16:13:50.864Z,34.10
2023-03-07T16:16:54.623Z,34.48
2023-03-07T16:19:57.346Z,34.81
2023-03-07T16:22:59.871Z,35.13
2023-03-07T16:26:05.971Z,35.33
2023-03-07T16:29:12.677Z,36.11
2023-03-07T16:32:17.430Z,35.79
2023-03-07T16:35:21.377Z,36.80
2023-03-07T16:38:23.865Z,37.58
2023-03-07T16:41:27.836Z,38.29
2023-03-07T16:44:30.664Z,38.30
2023-03-07T16:47:33.161Z,37.58
2023-03-07T16:50:35.707Z,37.96
2023-03-07T16:53:38.392Z,38.76
2023-03-07T16:56:45.133Z,38.95
2023-03-07T16:59:48.362Z,38.64
2023-03-07T17:02:52.644Z,39.51
2023-03-07T17:05:55.203Z,39.76
2023-03-07T17:08:57.822Z,39.49
2023-03-07T17:12:04.152Z,40.49
2023-03-07T17:15:08.192Z,40.25
2023-03-07T17:18:11.783Z,41.11
2023-03-07T17:21:15.395Z,40.99
2023-03-07T17:24:17.910Z,41.05
2023-03-07T17:27:21.858Z,42.01
2023-03-07T17:30:26.092Z,41.66
2023-03-07T17:33:28.705Z,41.63
2023-03-07T17:36:32.353Z,42.15
2023-03-07T17:39:35.556Z,41.58
2023-03-07T17:42:40.415Z,42.18
2023-03-07T17:45:42.945Z,42.83
2023-03-07T17:48:45.471Z,42.33
2023-03-07T17:51:48.768Z,42.62
2023-03-07T17:54:51.560Z,42.94
2023-03-07T17:57:55.470Z,43.32
2023-03-07T18:00:57.955Z,43.56
2023-03-07T18:04:00.873Z,43.94
2023-03-07T18:07:04.556Z,44.04
2023-03-07T18:10:08.999Z,43.65
2023-03-07T18:13:14.862Z,43.64
2023-03-07T18:16:17.496Z,43.45
2023-03-07T18:19:26.427Z,42.96
2023-03-07T18:22:29.721Z,42.87
2023-03-07T18:25:32.249Z,43.10
2023-03-07T18:28:37.557Z,43.08
2023-03-07T18:31:40.075Z,42.90
2023-03-07T18:34:42.616Z,43.52
2023-03-07T18:37:45.646Z,43.76
2023-03-07T18:40:48.478Z,44.00
2023-03-07T18:43:53.893Z,43.40
2023-03-07T18:46:56.520Z,42.61
2023-03-07T18:49:59.102Z,43.01
2023-03-07T18:53:01.664Z,42.79
2023-03-07T18:56:04.828Z,42.99
2023-03-07T18:59:08.659Z,42.21
2023-03-07T19:02:11.286Z,42.84
2023-03-07T19:05:14.044Z,42.05
2023-03-07T19:08:17.640Z,42.55
2023-03-07T19:11:21.074Z,42.20
2023-03-07T19:14:26.280Z,42.50
2023-03-07T19:17:29.138Z,42.85
2023-03-07T19:20:31.610Z,42.11
2023-03-07T19:23:34.114Z,42.49
2023-03-07T19:26:36.670Z,42.03
2023-03-07T19:29:40.574Z,42.63
2023-03-07T19:32:43.453Z,42.94
2023-03-07T19:35:45.984Z,44.24
2023-03-07T19:38:49.149Z,43.13
2023-03-07T19:41:51.631Z,42.00
2023-03-07T19:44:56.055Z,42.80
2023-03-07T19:47:58.743Z,42.61
2023-03-07T19:51:01.667Z,42.38
2023-03-07T19:54:04.469Z,42.62
2023-03-07T19:57:09.132Z,43.10
2023-03-07T20:00:14.780Z,42.95
2023-03-07T20:03:18.832Z,43.02
2023-03-07T20:06:22.799Z,43.28
2023-03-07T20:09:25.488Z,43.66
2023-03-07T20:12:27.994Z,43.38
2023-03-07T20:15:32.338Z,43.28
2023-03-07T20:18:35.519Z,43.75
2023-03-07T20:21:38.074Z,43.30
2023-03-07T20:24:40.609Z,43.14
2023-03-07T20:27:43.075Z,43.66
2023-03-07T20:30:48.142Z,42.67
2023-03-07T20:33:51.057Z,43.02
2023-03-07T20:36:54.708Z,43.00
2023-03-07T20:39:57.213Z,42.60
2023-03-07T20:43:00.910Z,42.18
2023-03-07T20:46:05.461Z,42.51
2023-03-07T20:49:08.456Z,42.33
2023-03-07T20:52:11.046Z,42.13
2023-03-07T20:55:13.630Z,42.26
2023-03-07T20:58:16.393Z,41.70
2023-03-07T21:01:21.011Z,41.83
2023-03-07T21:04:23.622Z,41.28
2023-03-07T21:07:26.241Z,41.22
2023-03-07T21:10:28.849Z,41.52
2023-03-07T21:13:31.792Z,41.03
2023-03-07T21:16:35.767Z,41.12
2023-03-07T21:19:38.564Z,41.54
2023-03-07T21:22:41.103Z,41.31
2023-03-07T21:25:45.027Z,41.30
2023-03-07T21:28:47.557Z,41.29
2023-03-07T21:31:51.682Z,41.46
2023-03-07T21:34:54.293Z,40.70
2023-03-07T21:37:56.775Z,40.78
2023-03-07T21:40:59.429Z,40.85
2023-03-07T21:44:02.257Z,41.32
2023-03-07T21:47:06.252Z,40.82
2023-03-07T21:50:10.257Z,40.56
2023-03-07T21:53:12.910Z,40.80
2023-03-07T21:56:17.623Z,40.88
2023-03-07T21:59:20.140Z,40.73
2023-03-07T22:02:24.142Z,40.66
2023-03-07T22:05:26.777Z,40.99
2023-03-07T22:08:29.265Z,40.61
2023-03-07T22:11:31.843Z,40.39
2023-03-07T22:14:34.503Z,40.58
2023-03-07T22:17:38.332Z,40.37
2023-03-07T22:20:40.697Z,41.16
2023-03-07T22:23:43.518Z,41.78
2023-03-07T22:26:45.963Z,41.23
2023-03-07T22:29:48.679Z,41.78
2023-03-07T22:32:52.528Z,41.60
2023-03-07T22:35:56.270Z,41.78
2023-03-07T22:38:58.880Z,41.95
2023-03-07T22:42:01.797Z,41.89
2023-03-07T22:45:04.951Z,42.53
2023-03-07T22:48:08.755Z,42.50
2023-03-07T22:51:14.273Z,42.78
2023-03-07T22:54:16.811Z,42.71
2023-03-07T22:57:19.291Z,42.83
2023-03-07T23:00:22.345Z,43.03
2023-03-07T23:03:26.664Z,43.05
2023-03-07T23:06:30.889Z,43.11
2023-03-07T23:09:33.918Z,43.30
2023-03-07T23:12:36.412Z,43.58
2023-03-07T23:15:40.776Z,44.30
2023-03-07T23:18:45.750Z,44.04
2023-03-07T23:21:48.297Z,44.50
2023-03-07T23:24:50.848Z,44.56
2023-03-07T23:27:53.448Z,44.94
2023-03-07T23:30:56.203Z,45.58
2023-03-07T23:34:01.785Z,45.43
2023-03-07T23:37:04.313Z,45.94
2023-03-07T23:40:08.248Z,46.12
2023-03-07T23:43:11.192Z,46.14
2023-03-07T23:46:14.754Z,46.53
2023-03-07T23:49:18.648Z,46.65
2023-03-07T23:52:21.092Z,46.46
2023-03-07T23:55:23.711Z,46.46
2023-03-07T23:58:26.614Z,46.22
